sensor_id;sensor_type;location;lat;lon;timestamp;pressure;altitude;pressure_sealevel;temperature;humidity
65010;BME280;51556;50.002;22.014;2023-06-22T00:00:55;99336.20;;;22.34;66.21
65010;BME280;51556;50.002;22.014;2023-06-22T00:03:23;99334.98;;;22.31;66.34
65010;BME280;51556;50.002;22.014;2023-06-22T00:05:49;99334.37;;;22.29;66.26
65010;BME280;51556;50.002;22.014;2023-06-22T00:08:16;99333.44;;;22.28;66.32
65010;BME280;51556;50.002;22.014;2023-06-22T00:10:42;99334.92;;;22.25;66.43
65010;BME280;51556;50.002;22.014;2023-06-22T00:13:08;99332.48;;;22.22;66.49
65010;BME280;51556;50.002;22.014;2023-06-22T00:15:35;99327.16;;;22.21;66.59
65010;BME280;51556;50.002;22.014;2023-06-22T00:18:01;99323.29;;;22.20;66.56
65010;BME280;51556;50.002;22.014;2023-06-22T00:20:28;99316.80;;;22.18;66.62
65010;BME280;51556;50.002;22.014;2023-06-22T00:22:58;99314.61;;;22.16;66.68
65010;BME280;51556;50.002;22.014;2023-06-22T00:25:24;99314.38;;;22.12;66.88
65010;BME280;51556;50.002;22.014;2023-06-22T00:27:50;99311.38;;;22.06;66.95
65010;BME280;51556;50.002;22.014;2023-06-22T00:30:16;99312.61;;;22.04;67.07
65010;BME280;51556;50.002;22.014;2023-06-22T00:32:43;99305.95;;;22.02;67.26
65010;BME280;51556;50.002;22.014;2023-06-22T00:35:09;99301.46;;;21.94;67.31
65010;BME280;51556;50.002;22.014;2023-06-22T00:37:36;99300.50;;;21.88;67.49
65010;BME280;51556;50.002;22.014;2023-06-22T00:40:02;99306.57;;;21.81;67.73
65010;BME280;51556;50.002;22.014;2023-06-22T00:42:30;99305.95;;;21.77;67.83
65010;BME280;51556;50.002;22.014;2023-06-22T00:44:55;99306.04;;;21.76;67.96
65010;BME280;51556;50.002;22.014;2023-06-22T00:47:21;99307.67;;;21.76;67.99
65010;BME280;51556;50.002;22.014;2023-06-22T00:49:48;99307.98;;;21.74;68.26
65010;BME280;51556;50.002;22.014;2023-06-22T00:52:17;99305.51;;;21.71;68.31
65010;BME280;51556;50.002;22.014;2023-06-22T00:54:47;99303.96;;;21.65;68.53
65010;BME280;51556;50.002;22.014;2023-06-22T00:57:15;99302.96;;;21.59;68.95
65010;BME280;51556;50.002;22.014;2023-06-22T00:59:44;99303.37;;;21.51;69.25
65010;BME280;51556;50.002;22.014;2023-06-22T01:02:13;99305.78;;;21.40;69.63
65010;BME280;51556;50.002;22.014;2023-06-22T01:04:39;99306.11;;;21.30;69.97
65010;BME280;51556;50.002;22.014;2023-06-22T01:09:52;99314.00;;;21.24;70.36
65010;BME280;51556;50.002;22.014;2023-06-22T01:12:20;99319.48;;;21.23;70.31
65010;BME280;51556;50.002;22.014;2023-06-22T01:14:56;99319.59;;;21.21;70.41
65010;BME280;51556;50.002;22.014;2023-06-22T01:17:24;99312.95;;;21.19;70.76
65010;BME280;51556;50.002;22.014;2023-06-22T01:19:54;99307.89;;;21.19;70.73
65010;BME280;51556;50.002;22.014;2023-06-22T01:22:30;99319.92;;;21.21;70.56
65010;BME280;51556;50.002;22.014;2023-06-22T01:25:19;99324.42;;;21.18;70.66
65010;BME280;51556;50.002;22.014;2023-06-22T01:30:12;99309.35;;;21.09;70.78
65010;BME280;51556;50.002;22.014;2023-06-22T01:32:40;99313.15;;;21.06;70.88
65010;BME280;51556;50.002;22.014;2023-06-22T01:35:07;99309.66;;;20.99;70.91
65010;BME280;51556;50.002;22.014;2023-06-22T01:37:34;99307.46;;;20.97;71.03
65010;BME280;51556;50.002;22.014;2023-06-22T01:40:02;99308.15;;;20.95;71.11
65010;BME280;51556;50.002;22.014;2023-06-22T01:42:31;99306.98;;;20.97;71.17
65010;BME280;51556;50.002;22.014;2023-06-22T01:44:58;99304.55;;;20.95;71.12
65010;BME280;51556;50.002;22.014;2023-06-22T01:47:25;99304.23;;;20.92;71.12
65010;BME280;51556;50.002;22.014;2023-06-22T01:49:51;99309.94;;;20.93;71.18
65010;BME280;51556;50.002;22.014;2023-06-22T01:52:17;99316.15;;;20.91;71.29
65010;BME280;51556;50.002;22.014;2023-06-22T01:54:43;99325.54;;;20.87;71.15
65010;BME280;51556;50.002;22.014;2023-06-22T01:57:08;99328.20;;;20.82;71.57
65010;BME280;51556;50.002;22.014;2023-06-22T01:59:41;99331.14;;;20.81;71.50
65010;BME280;51556;50.002;22.014;2023-06-22T02:02:09;99338.39;;;20.80;71.80
65010;BME280;51556;50.002;22.014;2023-06-22T02:04:51;99345.23;;;20.74;72.00
65010;BME280;51556;50.002;22.014;2023-06-22T02:07:24;99343.54;;;20.67;72.25
65010;BME280;51556;50.002;22.014;2023-06-22T02:09:56;99345.09;;;20.62;72.32
65010;BME280;51556;50.002;22.014;2023-06-22T02:12:24;99356.02;;;20.59;72.57
65010;BME280;51556;50.002;22.014;2023-06-22T02:14:51;99351.73;;;20.57;72.68
65010;BME280;51556;50.002;22.014;2023-06-22T02:17:17;99350.54;;;20.56;72.88
65010;BME280;51556;50.002;22.014;2023-06-22T02:19:43;99361.56;;;20.54;72.82
65010;BME280;51556;50.002;22.014;2023-06-22T02:22:09;99365.27;;;20.52;72.81
65010;BME280;51556;50.002;22.014;2023-06-22T02:24:35;99355.16;;;20.48;73.00
65010;BME280;51556;50.002;22.014;2023-06-22T02:27:02;99355.63;;;20.49;73.01
65010;BME280;51556;50.002;22.014;2023-06-22T02:29:28;99354.20;;;20.46;73.06
65010;BME280;51556;50.002;22.014;2023-06-22T02:31:54;99355.87;;;20.45;73.16
65010;BME280;51556;50.002;22.014;2023-06-22T02:34:21;99351.52;;;20.46;73.04
65010;BME280;51556;50.002;22.014;2023-06-22T02:36:48;99350.23;;;20.50;73.00
65010;BME280;51556;50.002;22.014;2023-06-22T02:39:21;99352.22;;;20.52;73.10
65010;BME280;51556;50.002;22.014;2023-06-22T02:41:50;99346.22;;;20.54;72.99
65010;BME280;51556;50.002;22.014;2023-06-22T02:44:16;99346.41;;;20.56;73.07
65010;BME280;51556;50.002;22.014;2023-06-22T02:46:42;99350.30;;;20.62;73.06
65010;BME280;51556;50.002;22.014;2023-06-22T02:49:07;99349.27;;;20.64;73.03
65010;BME280;51556;50.002;22.014;2023-06-22T02:51:33;99349.33;;;20.63;73.03
65010;BME280;51556;50.002;22.014;2023-06-22T02:53:59;99349.99;;;20.64;73.24
65010;BME280;51556;50.002;22.014;2023-06-22T02:56:25;99353.39;;;20.67;73.19
65010;BME280;51556;50.002;22.014;2023-06-22T02:58:51;99347.84;;;20.69;73.18
65010;BME280;51556;50.002;22.014;2023-06-22T03:01:17;99351.22;;;20.73;73.10
65010;BME280;51556;50.002;22.014;2023-06-22T03:03:48;99353.48;;;20.74;73.04
65010;BME280;51556;50.002;22.014;2023-06-22T03:06:14;99352.34;;;20.75;73.12
65010;BME280;51556;50.002;22.014;2023-06-22T03:08:39;99353.46;;;20.74;73.25
65010;BME280;51556;50.002;22.014;2023-06-22T03:11:07;99354.52;;;20.69;73.13
65010;BME280;51556;50.002;22.014;2023-06-22T03:13:33;99361.86;;;20.66;73.22
65010;BME280;51556;50.002;22.014;2023-06-22T03:15:58;99361.50;;;20.66;73.23
65010;BME280;51556;50.002;22.014;2023-06-22T03:18:24;99362.98;;;20.62;73.28
65010;BME280;51556;50.002;22.014;2023-06-22T03:20:49;99366.79;;;20.62;73.58
65010;BME280;51556;50.002;22.014;2023-06-22T03:23:15;99364.35;;;20.61;73.60
65010;BME280;51556;50.002;22.014;2023-06-22T03:25:42;99361.29;;;20.61;73.50
65010;BME280;51556;50.002;22.014;2023-06-22T03:28:10;99357.24;;;20.63;73.74
65010;BME280;51556;50.002;22.014;2023-06-22T03:30:35;99353.55;;;20.67;73.66
65010;BME280;51556;50.002;22.014;2023-06-22T03:33:01;99355.39;;;20.72;73.58
65010;BME280;51556;50.002;22.014;2023-06-22T03:35:27;99358.95;;;20.72;73.58
65010;BME280;51556;50.002;22.014;2023-06-22T03:37:52;99361.42;;;20.70;73.74
65010;BME280;51556;50.002;22.014;2023-06-22T03:40:18;99364.52;;;20.69;73.88
65010;BME280;51556;50.002;22.014;2023-06-22T03:42:43;99362.70;;;20.69;73.94
65010;BME280;51556;50.002;22.014;2023-06-22T03:45:09;99359.85;;;20.72;74.01
65010;BME280;51556;50.002;22.014;2023-06-22T03:47:35;99358.47;;;20.71;74.02
65010;BME280;51556;50.002;22.014;2023-06-22T03:50:01;99358.29;;;20.72;74.04
65010;BME280;51556;50.002;22.014;2023-06-22T03:52:29;99363.54;;;20.76;74.14
65010;BME280;51556;50.002;22.014;2023-06-22T03:54:57;99371.50;;;20.75;73.99
65010;BME280;51556;50.002;22.014;2023-06-22T03:57:23;99373.94;;;20.73;74.25
65010;BME280;51556;50.002;22.014;2023-06-22T03:59:49;99370.42;;;20.75;74.32
65010;BME280;51556;50.002;22.014;2023-06-22T04:02:15;99372.48;;;20.79;74.35
65010;BME280;51556;50.002;22.014;2023-06-22T04:04:40;99373.36;;;20.79;74.33
65010;BME280;51556;50.002;22.014;2023-06-22T04:07:06;99378.30;;;20.77;74.29
65010;BME280;51556;50.002;22.014;2023-06-22T04:09:31;99383.85;;;20.82;74.29
65010;BME280;51556;50.002;22.014;2023-06-22T04:11:57;99391.66;;;20.85;74.35
65010;BME280;51556;50.002;22.014;2023-06-22T04:14:22;99393.86;;;20.87;74.14
65010;BME280;51556;50.002;22.014;2023-06-22T04:16:48;99396.09;;;20.88;74.02
65010;BME280;51556;50.002;22.014;2023-06-22T04:19:13;99401.23;;;20.87;74.13
65010;BME280;51556;50.002;22.014;2023-06-22T04:21:42;99407.42;;;20.85;74.20
65010;BME280;51556;50.002;22.014;2023-06-22T04:24:10;99407.68;;;20.87;74.46
65010;BME280;51556;50.002;22.014;2023-06-22T04:26:35;99407.58;;;20.93;74.58
65010;BME280;51556;50.002;22.014;2023-06-22T04:29:04;99411.22;;;21.01;74.46
65010;BME280;51556;50.002;22.014;2023-06-22T04:31:34;99423.36;;;21.04;74.26
65010;BME280;51556;50.002;22.014;2023-06-22T04:34:06;99432.21;;;21.05;74.27
65010;BME280;51556;50.002;22.014;2023-06-22T04:36:37;99443.39;;;21.04;74.23
65010;BME280;51556;50.002;22.014;2023-06-22T04:39:06;99445.70;;;21.07;74.26
65010;BME280;51556;50.002;22.014;2023-06-22T04:41:32;99444.08;;;21.10;74.13
65010;BME280;51556;50.002;22.014;2023-06-22T04:44:13;99441.31;;;21.16;73.97
65010;BME280;51556;50.002;22.014;2023-06-22T04:46:39;99449.27;;;21.23;74.00
65010;BME280;51556;50.002;22.014;2023-06-22T04:49:06;99454.40;;;21.26;73.91
65010;BME280;51556;50.002;22.014;2023-06-22T04:51:44;99463.84;;;21.35;73.87
65010;BME280;51556;50.002;22.014;2023-06-22T04:54:09;99463.51;;;21.46;73.58
65010;BME280;51556;50.002;22.014;2023-06-22T04:56:35;99461.76;;;21.50;73.40
65010;BME280;51556;50.002;22.014;2023-06-22T04:59:02;99461.04;;;21.55;73.44
65010;BME280;51556;50.002;22.014;2023-06-22T05:01:29;99465.03;;;21.59;73.25
65010;BME280;51556;50.002;22.014;2023-06-22T05:03:57;99465.09;;;21.66;73.24
65010;BME280;51556;50.002;22.014;2023-06-22T05:06:24;99463.95;;;21.70;73.32
65010;BME280;51556;50.002;22.014;2023-06-22T05:08:57;99464.86;;;21.77;73.36
65010;BME280;51556;50.002;22.014;2023-06-22T05:11:24;99456.50;;;21.87;73.30
65010;BME280;51556;50.002;22.014;2023-06-22T05:13:50;99452.88;;;21.94;73.31
65010;BME280;51556;50.002;22.014;2023-06-22T05:16:16;99452.83;;;22.01;73.17
65010;BME280;51556;50.002;22.014;2023-06-22T05:18:41;99454.41;;;22.07;72.99
65010;BME280;51556;50.002;22.014;2023-06-22T05:21:07;99447.97;;;22.09;72.86
65010;BME280;51556;50.002;22.014;2023-06-22T05:23:32;99451.09;;;22.13;72.98
65010;BME280;51556;50.002;22.014;2023-06-22T05:25:58;99451.06;;;22.18;72.94
65010;BME280;51556;50.002;22.014;2023-06-22T05:28:23;99451.75;;;22.23;72.82
65010;BME280;51556;50.002;22.014;2023-06-22T05:30:49;99454.95;;;22.26;72.55
65010;BME280;51556;50.002;22.014;2023-06-22T05:33:14;99458.73;;;22.31;72.69
65010;BME280;51556;50.002;22.014;2023-06-22T05:35:40;99461.90;;;22.34;72.44
65010;BME280;51556;50.002;22.014;2023-06-22T05:38:06;99460.91;;;22.35;72.36
65010;BME280;51556;50.002;22.014;2023-06-22T05:40:32;99458.63;;;22.40;72.49
65010;BME280;51556;50.002;22.014;2023-06-22T05:42:57;99457.91;;;22.42;72.25
65010;BME280;51556;50.002;22.014;2023-06-22T05:45:24;99458.89;;;22.46;72.28
65010;BME280;51556;50.002;22.014;2023-06-22T05:47:50;99463.80;;;22.48;72.07
65010;BME280;51556;50.002;22.014;2023-06-22T05:50:15;99464.60;;;22.46;72.27
65010;BME280;51556;50.002;22.014;2023-06-22T05:52:42;99465.35;;;22.46;72.34
65010;BME280;51556;50.002;22.014;2023-06-22T05:55:08;99465.92;;;22.48;72.41
65010;BME280;51556;50.002;22.014;2023-06-22T05:57:33;99465.15;;;22.51;72.40
65010;BME280;51556;50.002;22.014;2023-06-22T05:59:58;99466.92;;;22.56;72.36
65010;BME280;51556;50.002;22.014;2023-06-22T06:02:24;99473.50;;;22.62;72.39
65010;BME280;51556;50.002;22.014;2023-06-22T06:04:50;99480.23;;;22.67;72.32
65010;BME280;51556;50.002;22.014;2023-06-22T06:07:19;99482.52;;;22.76;72.23
65010;BME280;51556;50.002;22.014;2023-06-22T06:09:45;99488.91;;;22.85;72.09
65010;BME280;51556;50.002;22.014;2023-06-22T06:12:13;99487.98;;;22.90;71.82
65010;BME280;51556;50.002;22.014;2023-06-22T06:14:39;99488.67;;;22.97;71.78
65010;BME280;51556;50.002;22.014;2023-06-22T06:17:06;99490.91;;;23.06;71.64
65010;BME280;51556;50.002;22.014;2023-06-22T06:19:35;99489.56;;;23.12;71.37
65010;BME280;51556;50.002;22.014;2023-06-22T06:22:01;99486.34;;;23.14;71.08
65010;BME280;51556;50.002;22.014;2023-06-22T06:24:27;99484.23;;;23.11;71.21
65010;BME280;51556;50.002;22.014;2023-06-22T06:26:52;99480.73;;;23.14;71.38
65010;BME280;51556;50.002;22.014;2023-06-22T06:29:18;99483.95;;;23.22;71.33
65010;BME280;51556;50.002;22.014;2023-06-22T06:31:43;99488.23;;;23.29;71.26
65010;BME280;51556;50.002;22.014;2023-06-22T06:34:09;99488.04;;;23.37;71.03
65010;BME280;51556;50.002;22.014;2023-06-22T06:36:34;99490.08;;;23.38;70.62
65010;BME280;51556;50.002;22.014;2023-06-22T06:39:00;99493.10;;;23.41;70.54
65010;BME280;51556;50.002;22.014;2023-06-22T06:41:25;99483.21;;;23.39;70.39
65010;BME280;51556;50.002;22.014;2023-06-22T06:43:51;99474.66;;;23.38;70.57
65010;BME280;51556;50.002;22.014;2023-06-22T06:46:17;99475.69;;;23.41;70.52
65010;BME280;51556;50.002;22.014;2023-06-22T06:48:44;99475.33;;;23.41;70.51
65010;BME280;51556;50.002;22.014;2023-06-22T06:51:09;99477.14;;;23.41;70.46
65010;BME280;51556;50.002;22.014;2023-06-22T06:53:37;99467.54;;;23.37;70.44
65010;BME280;51556;50.002;22.014;2023-06-22T06:56:03;99465.41;;;23.37;70.60
65010;BME280;51556;50.002;22.014;2023-06-22T06:58:28;99464.94;;;23.43;70.51
65010;BME280;51556;50.002;22.014;2023-06-22T07:00:54;99466.77;;;23.45;70.28
65010;BME280;51556;50.002;22.014;2023-06-22T07:03:20;99469.94;;;23.45;70.24
65010;BME280;51556;50.002;22.014;2023-06-22T07:05:45;99468.44;;;23.48;70.18
65010;BME280;51556;50.002;22.014;2023-06-22T07:08:10;99466.92;;;23.52;70.13
65010;BME280;51556;50.002;22.014;2023-06-22T07:10:36;99467.27;;;23.57;70.09
65010;BME280;51556;50.002;22.014;2023-06-22T07:13:02;99468.55;;;23.63;69.68
65010;BME280;51556;50.002;22.014;2023-06-22T07:15:27;99470.58;;;23.70;69.55
65010;BME280;51556;50.002;22.014;2023-06-22T07:17:56;99467.57;;;23.72;69.31
65010;BME280;51556;50.002;22.014;2023-06-22T07:20:21;99468.98;;;23.75;69.75
65010;BME280;51556;50.002;22.014;2023-06-22T07:22:47;99468.91;;;23.82;69.47
65010;BME280;51556;50.002;22.014;2023-06-22T07:25:13;99469.17;;;23.90;69.17
65010;BME280;51556;50.002;22.014;2023-06-22T07:28:07;99463.80;;;23.96;69.07
65010;BME280;51556;50.002;22.014;2023-06-22T07:30:33;99465.39;;;23.99;67.40
65010;BME280;51556;50.002;22.014;2023-06-22T07:32:59;99468.20;;;24.00;67.54
65010;BME280;51556;50.002;22.014;2023-06-22T07:35:34;99466.75;;;24.05;67.41
65010;BME280;51556;50.002;22.014;2023-06-22T07:38:00;99464.54;;;24.12;66.88
65010;BME280;51556;50.002;22.014;2023-06-22T07:40:26;99466.44;;;24.20;66.73
65010;BME280;51556;50.002;22.014;2023-06-22T07:42:51;99468.86;;;24.30;67.06
65010;BME280;51556;50.002;22.014;2023-06-22T07:45:18;99461.41;;;24.42;67.31
65010;BME280;51556;50.002;22.014;2023-06-22T07:47:43;99459.48;;;24.52;67.15
65010;BME280;51556;50.002;22.014;2023-06-22T07:50:09;99457.34;;;24.65;66.98
65010;BME280;51556;50.002;22.014;2023-06-22T07:52:35;99457.96;;;24.73;65.75
65010;BME280;51556;50.002;22.014;2023-06-22T07:55:00;99455.60;;;24.78;65.27
65010;BME280;51556;50.002;22.014;2023-06-22T07:57:27;99457.77;;;24.84;64.74
65010;BME280;51556;50.002;22.014;2023-06-22T08:00:04;99453.50;;;24.94;63.63
65010;BME280;51556;50.002;22.014;2023-06-22T08:02:37;99456.17;;;25.04;63.04
65010;BME280;51556;50.002;22.014;2023-06-22T08:05:02;99458.73;;;25.14;62.68
65010;BME280;51556;50.002;22.014;2023-06-22T08:07:28;99465.42;;;25.26;61.93
65010;BME280;51556;50.002;22.014;2023-06-22T08:09:53;99464.46;;;25.38;61.39
65010;BME280;51556;50.002;22.014;2023-06-22T08:12:18;99466.94;;;25.45;61.55
65010;BME280;51556;50.002;22.014;2023-06-22T08:14:44;99465.74;;;25.54;61.20
65010;BME280;51556;50.002;22.014;2023-06-22T08:17:11;99472.42;;;25.62;59.97
65010;BME280;51556;50.002;22.014;2023-06-22T08:19:40;99473.73;;;25.68;59.66
65010;BME280;51556;50.002;22.014;2023-06-22T08:22:05;99470.11;;;25.75;59.68
65010;BME280;51556;50.002;22.014;2023-06-22T08:24:31;99466.42;;;25.84;59.50
65010;BME280;51556;50.002;22.014;2023-06-22T08:26:56;99463.21;;;25.94;59.28
65010;BME280;51556;50.002;22.014;2023-06-22T08:29:22;99462.83;;;26.02;59.05
65010;BME280;51556;50.002;22.014;2023-06-22T08:31:48;99467.16;;;26.08;57.92
65010;BME280;51556;50.002;22.014;2023-06-22T08:34:13;99470.45;;;26.10;57.70
65010;BME280;51556;50.002;22.014;2023-06-22T08:36:39;99473.78;;;26.19;57.80
65010;BME280;51556;50.002;22.014;2023-06-22T08:39:09;99476.33;;;26.25;57.31
65010;BME280;51556;50.002;22.014;2023-06-22T08:41:35;99474.84;;;26.32;57.68
65010;BME280;51556;50.002;22.014;2023-06-22T08:44:00;99477.88;;;26.38;57.61
65010;BME280;51556;50.002;22.014;2023-06-22T08:46:26;99478.16;;;26.45;56.81
65010;BME280;51556;50.002;22.014;2023-06-22T08:48:56;99473.77;;;26.48;56.77
65010;BME280;51556;50.002;22.014;2023-06-22T08:51:22;99474.61;;;26.54;56.86
65010;BME280;51556;50.002;22.014;2023-06-22T08:53:47;99472.86;;;26.60;56.81
65010;BME280;51556;50.002;22.014;2023-06-22T08:56:13;99472.63;;;26.69;57.06
65010;BME280;51556;50.002;22.014;2023-06-22T08:58:38;99470.04;;;26.79;56.93
65010;BME280;51556;50.002;22.014;2023-06-22T09:01:07;99468.90;;;26.89;55.83
65010;BME280;51556;50.002;22.014;2023-06-22T09:03:32;99469.25;;;26.89;55.31
65010;BME280;51556;50.002;22.014;2023-06-22T09:06:01;99464.05;;;26.95;56.41
65010;BME280;51556;50.002;22.014;2023-06-22T09:08:27;99472.22;;;27.05;56.47
65010;BME280;51556;50.002;22.014;2023-06-22T09:10:52;99479.43;;;27.11;55.23
65010;BME280;51556;50.002;22.014;2023-06-22T09:13:20;99479.85;;;27.12;54.45
65010;BME280;51556;50.002;22.014;2023-06-22T09:15:47;99484.59;;;27.19;55.31
65010;BME280;51556;50.002;22.014;2023-06-22T09:18:18;99489.50;;;27.33;55.18
65010;BME280;51556;50.002;22.014;2023-06-22T09:20:46;99485.27;;;27.47;55.11
65010;BME280;51556;50.002;22.014;2023-06-22T09:23:12;99481.66;;;27.61;55.36
65010;BME280;51556;50.002;22.014;2023-06-22T09:25:37;99481.69;;;27.72;55.34
65010;BME280;51556;50.002;22.014;2023-06-22T09:28:06;99480.16;;;27.76;54.80
65010;BME280;51556;50.002;22.014;2023-06-22T09:30:43;99469.63;;;27.81;55.19
65010;BME280;51556;50.002;22.014;2023-06-22T09:33:09;99468.79;;;27.89;54.30
65010;BME280;51556;50.002;22.014;2023-06-22T09:35:44;99470.55;;;27.95;53.86
65010;BME280;51556;50.002;22.014;2023-06-22T09:38:10;99467.21;;;28.02;53.92
65010;BME280;51556;50.002;22.014;2023-06-22T09:40:44;99460.98;;;28.16;53.99
65010;BME280;51556;50.002;22.014;2023-06-22T09:43:34;99463.86;;;28.33;54.03
65010;BME280;51556;50.002;22.014;2023-06-22T09:46:02;99466.41;;;28.42;51.54
65010;BME280;51556;50.002;22.014;2023-06-22T09:51:16;99461.00;;;28.56;52.01
65010;BME280;51556;50.002;22.014;2023-06-22T09:54:11;99458.00;;;28.59;52.34
65010;BME280;51556;50.002;22.014;2023-06-22T09:56:46;99452.52;;;28.73;52.55
65010;BME280;51556;50.002;22.014;2023-06-22T09:59:35;99458.83;;;28.89;52.82
65010;BME280;51556;50.002;22.014;2023-06-22T10:02:01;99460.38;;;29.03;52.10
65010;BME280;51556;50.002;22.014;2023-06-22T10:08:06;99462.99;;;29.09;51.12
65010;BME280;51556;50.002;22.014;2023-06-22T10:10:44;99458.67;;;29.05;51.62
65010;BME280;51556;50.002;22.014;2023-06-22T10:13:21;99455.85;;;29.08;51.94
65010;BME280;51556;50.002;22.014;2023-06-22T10:18:33;99467.06;;;29.14;51.22
65010;BME280;51556;50.002;22.014;2023-06-22T10:27:33;99472.18;;;29.13;51.00
65010;BME280;51556;50.002;22.014;2023-06-22T10:33:23;99476.75;;;29.11;50.36
65010;BME280;51556;50.002;22.014;2023-06-22T10:35:48;99473.20;;;28.94;49.44
65010;BME280;51556;50.002;22.014;2023-06-22T10:38:14;99467.75;;;28.85;50.72
65010;BME280;51556;50.002;22.014;2023-06-22T10:40:39;99459.45;;;28.90;51.41
65010;BME280;51556;50.002;22.014;2023-06-22T10:43:07;99463.44;;;29.03;51.89
65010;BME280;51556;50.002;22.014;2023-06-22T10:45:33;99464.94;;;29.15;51.78
65010;BME280;51556;50.002;22.014;2023-06-22T10:48:07;99462.71;;;29.24;50.82
65010;BME280;51556;50.002;22.014;2023-06-22T10:50:50;99464.05;;;29.25;50.57
65010;BME280;51556;50.002;22.014;2023-06-22T10:53:25;99468.86;;;29.30;51.35
65010;BME280;51556;50.002;22.014;2023-06-22T10:55:51;99463.48;;;29.38;51.01
65010;BME280;51556;50.002;22.014;2023-06-22T10:58:26;99454.25;;;29.52;51.57
65010;BME280;51556;50.002;22.014;2023-06-22T11:00:55;99445.62;;;29.60;50.82
65010;BME280;51556;50.002;22.014;2023-06-22T11:03:30;99442.86;;;29.68;51.49
65010;BME280;51556;50.002;22.014;2023-06-22T11:05:56;99438.39;;;29.79;51.71
65010;BME280;51556;50.002;22.014;2023-06-22T11:08:21;99436.55;;;29.83;50.18
65010;BME280;51556;50.002;22.014;2023-06-22T11:10:47;99430.50;;;29.88;51.03
65010;BME280;51556;50.002;22.014;2023-06-22T11:13:12;99430.48;;;30.01;51.42
65010;BME280;51556;50.002;22.014;2023-06-22T11:15:38;99432.73;;;30.21;51.54
65010;BME280;51556;50.002;22.014;2023-06-22T11:18:04;99431.09;;;30.43;50.08
65010;BME280;51556;50.002;22.014;2023-06-22T11:20:40;99424.27;;;30.61;49.96
65010;BME280;51556;50.002;22.014;2023-06-22T11:23:06;99421.48;;;30.83;49.59
65010;BME280;51556;50.002;22.014;2023-06-22T11:25:45;99420.20;;;31.08;48.56
65010;BME280;51556;50.002;22.014;2023-06-22T11:47:54;99400.30;;;32.47;43.75
65010;BME280;51556;50.002;22.014;2023-06-22T12:03:15;99395.81;;;32.85;41.86
65010;BME280;51556;50.002;22.014;2023-06-22T12:59:18;99396.85;;;30.73;49.01
65010;BME280;51556;50.002;22.014;2023-06-22T13:05:19;99415.17;;;29.82;52.64
65010;BME280;51556;50.002;22.014;2023-06-22T13:11:22;99419.02;;;29.39;52.51
65010;BME280;51556;50.002;22.014;2023-06-22T13:13:48;99419.95;;;29.20;54.23
65010;BME280;51556;50.002;22.014;2023-06-22T13:23:03;99409.63;;;28.78;56.32
65010;BME280;51556;50.002;22.014;2023-06-22T13:28:05;99397.98;;;28.35;57.24
65010;BME280;51556;50.002;22.014;2023-06-22T13:30:50;99403.11;;;28.27;57.67
65010;BME280;51556;50.002;22.014;2023-06-22T13:33:16;99408.46;;;28.22;57.93
65010;BME280;51556;50.002;22.014;2023-06-22T13:35:42;99412.18;;;28.12;58.16
65010;BME280;51556;50.002;22.014;2023-06-22T13:38:09;99408.24;;;27.96;58.29
65010;BME280;51556;50.002;22.014;2023-06-22T13:40:54;99404.79;;;27.78;58.68
65010;BME280;51556;50.002;22.014;2023-06-22T13:43:43;99401.54;;;27.65;59.34
65010;BME280;51556;50.002;22.014;2023-06-22T13:46:08;99400.74;;;27.75;59.90
65010;BME280;51556;50.002;22.014;2023-06-22T13:48:34;99401.41;;;27.94;59.45
65010;BME280;51556;50.002;22.014;2023-06-22T13:51:05;99389.17;;;28.16;60.11
65010;BME280;51556;50.002;22.014;2023-06-22T13:53:51;99383.44;;;28.34;58.77
65010;BME280;51556;50.002;22.014;2023-06-22T13:56:58;99380.69;;;28.44;58.64
65010;BME280;51556;50.002;22.014;2023-06-22T13:59:22;99378.63;;;28.56;56.94
65010;BME280;51556;50.002;22.014;2023-06-22T14:01:48;99377.46;;;28.73;56.67
65010;BME280;51556;50.002;22.014;2023-06-22T14:10:51;99390.50;;;30.87;51.83
65010;BME280;51556;50.002;22.014;2023-06-22T18:03:06;99315.31;;;30.69;49.23
65010;BME280;51556;50.002;22.014;2023-06-22T18:22:56;99297.86;;;29.71;51.58
65010;BME280;51556;50.002;22.014;2023-06-22T18:26:03;99300.52;;;29.64;51.93
65010;BME280;51556;50.002;22.014;2023-06-22T18:35:51;99309.44;;;29.18;52.98
65010;BME280;51556;50.002;22.014;2023-06-22T18:41:59;99307.77;;;28.92;54.07
65010;BME280;51556;50.002;22.014;2023-06-22T18:52:12;99304.23;;;28.56;55.02
65010;BME280;51556;50.002;22.014;2023-06-22T18:54:42;99308.94;;;28.45;55.16
65010;BME280;51556;50.002;22.014;2023-06-22T18:57:13;99315.90;;;28.37;55.51
65010;BME280;51556;50.002;22.014;2023-06-22T18:59:40;99320.13;;;28.27;55.70
65010;BME280;51556;50.002;22.014;2023-06-22T19:02:09;99321.85;;;28.16;56.11
65010;BME280;51556;50.002;22.014;2023-06-22T19:04:45;99323.61;;;28.00;56.62
65010;BME280;51556;50.002;22.014;2023-06-22T19:07:13;99327.48;;;27.84;57.13
65010;BME280;51556;50.002;22.014;2023-06-22T19:13:26;99325.50;;;27.58;58.21
65010;BME280;51556;50.002;22.014;2023-06-22T19:18:21;99322.83;;;27.39;59.16
65010;BME280;51556;50.002;22.014;2023-06-22T19:20:48;99319.13;;;27.30;59.61
65010;BME280;51556;50.002;22.014;2023-06-22T19:23:24;99315.37;;;27.22;60.14
65010;BME280;51556;50.002;22.014;2023-06-22T19:25:51;99316.21;;;27.13;60.37
65010;BME280;51556;50.002;22.014;2023-06-22T19:28:16;99323.58;;;27.06;60.78
65010;BME280;51556;50.002;22.014;2023-06-22T19:34:17;99323.42;;;26.83;61.69
65010;BME280;51556;50.002;22.014;2023-06-22T19:36:42;99321.39;;;26.72;62.00
65010;BME280;51556;50.002;22.014;2023-06-22T19:39:18;99324.05;;;26.67;62.24
65010;BME280;51556;50.002;22.014;2023-06-22T19:41:53;99318.52;;;26.57;62.80
65010;BME280;51556;50.002;22.014;2023-06-22T19:44:20;99318.45;;;26.47;62.93